createdAt,value
2019-01-13T00:00:32.416Z,0.00
2019-01-13T00:01:32.348Z,0.00
2019-01-13T00:02:32.414Z,0.00
2019-01-13T00:03:32.347Z,0.00
2019-01-13T00:04:32.361Z,0.00
2019-01-13T00:05:32.420Z,0.00
2019-01-13T00:06:32.447Z,0.00
2019-01-13T00:07:32.350Z,0.00
2019-01-13T00:08:32.420Z,0.00
2019-01-13T00:09:32.420Z,0.00
2019-01-13T00:10:32.360Z,0.00
2019-01-13T00:11:32.340Z,0.00
2019-01-13T00:12:35.639Z,0.00
2019-01-13T00:13:32.359Z,0.00
2019-01-13T00:14:32.343Z,0.00
2019-01-13T00:15:32.311Z,0.00
2019-01-13T00:16:32.353Z,0.00
2019-01-13T00:17:32.302Z,0.00
2019-01-13T00:18:32.267Z,0.00
2019-01-13T00:19:32.529Z,0.00
2019-01-13T00:20:32.353Z,0.00
2019-01-13T00:21:32.362Z,0.00
2019-01-13T00:22:32.399Z,0.00
2019-01-13T00:23:32.366Z,0.00
2019-01-13T00:24:32.441Z,0.00
2019-01-13T00:25:32.453Z,0.00
2019-01-13T00:26:32.401Z,0.00
2019-01-13T00:27:32.449Z,0.00
2019-01-13T00:28:32.442Z,0.00
2019-01-13T00:29:32.433Z,0.00
2019-01-13T00:30:32.369Z,0.00
2019-01-13T00:31:32.355Z,0.00
2019-01-13T00:32:32.430Z,0.00
2019-01-13T00:33:32.366Z,0.00
2019-01-13T00:34:32.429Z,0.00
2019-01-13T00:35:32.364Z,0.00
2019-01-13T00:36:32.432Z,0.00
2019-01-13T00:37:32.362Z,0.00
2019-01-13T00:38:32.431Z,0.00
2019-01-13T00:39:32.367Z,0.00
2019-01-13T00:40:32.437Z,0.00
2019-01-13T00:41:33.858Z,0.00
2019-01-13T00:42:32.549Z,0.00
2019-01-13T00:43:32.442Z,0.00
2019-01-13T00:44:32.437Z,0.00
2019-01-13T00:45:32.363Z,0.00
2019-01-13T00:46:32.365Z,0.00
2019-01-13T00:47:32.351Z,0.00
2019-01-13T00:48:32.440Z,0.00
2019-01-13T00:49:32.441Z,0.00
2019-01-13T00:50:32.441Z,0.00
2019-01-13T00:51:32.369Z,0.00
2019-01-13T00:52:32.442Z,0.00
2019-01-13T00:53:32.371Z,0.00
2019-01-13T00:54:32.408Z,0.00
2019-01-13T00:55:32.451Z,0.00
2019-01-13T00:56:32.373Z,0.00
2019-01-13T00:57:32.449Z,0.00
2019-01-13T00:58:32.446Z,0.00
2019-01-13T00:59:32.450Z,0.00
2019-01-13T01:00:32.385Z,0.00
2019-01-13T01:01:32.359Z,0.00
2019-01-13T01:02:32.324Z,0.00
2019-01-13T01:03:32.418Z,0.00
2019-01-13T01:04:32.382Z,0.00
2019-01-13T01:05:32.338Z,0.00
2019-01-13T01:06:32.414Z,0.00
2019-01-13T01:07:32.359Z,0.00
2019-01-13T01:08:32.352Z,0.00
2019-01-13T01:09:32.355Z,0.00
2019-01-13T01:10:32.385Z,0.00
2019-01-13T01:11:32.392Z,0.00
2019-01-13T01:12:32.460Z,0.00
2019-01-13T01:13:32.385Z,0.00
2019-01-13T01:14:32.460Z,0.00
2019-01-13T01:15:32.383Z,0.00
2019-01-13T01:16:32.392Z,0.00
2019-01-13T01:17:32.386Z,0.00
2019-01-13T01:18:32.390Z,0.00
2019-01-13T01:19:32.460Z,0.00
2019-01-13T01:20:32.385Z,0.00
2019-01-13T01:21:32.461Z,0.00
2019-01-13T01:22:32.401Z,0.00
2019-01-13T01:23:32.465Z,0.00
2019-01-13T01:24:32.390Z,0.00
2019-01-13T01:25:32.466Z,0.00
2019-01-13T01:26:32.399Z,0.00
2019-01-13T01:27:32.399Z,0.00
2019-01-13T01:28:32.470Z,0.00
2019-01-13T01:29:32.398Z,0.00
2019-01-13T01:30:33.619Z,0.00
2019-01-13T01:31:32.411Z,0.00
2019-01-13T01:32:32.493Z,0.00
2019-01-13T01:33:32.450Z,0.00
2019-01-13T01:34:32.410Z,0.00
2019-01-13T01:35:32.417Z,0.00
2019-01-13T01:36:32.421Z,0.00
2019-01-13T01:37:32.426Z,0.00
2019-01-13T01:38:32.491Z,0.00
2019-01-13T01:39:32.485Z,0.00
2019-01-13T01:40:32.424Z,0.00
2019-01-13T01:41:32.403Z,0.00
2019-01-13T01:42:32.381Z,0.00
2019-01-13T01:43:32.459Z,0.00
2019-01-13T01:44:32.345Z,0.00
2019-01-13T01:45:32.430Z,0.00
2019-01-13T01:46:32.382Z,0.00
2019-01-13T01:47:32.417Z,0.00
2019-01-13T01:48:32.409Z,0.00
2019-01-13T01:49:32.365Z,0.00
2019-01-13T01:50:32.350Z,0.00
2019-01-13T01:51:32.421Z,0.00
2019-01-13T01:52:32.493Z,0.00
2019-01-13T01:53:32.511Z,0.00
2019-01-13T01:54:32.424Z,0.00
2019-01-13T01:55:32.496Z,0.00
2019-01-13T01:56:32.496Z,0.00
2019-01-13T01:57:32.442Z,0.00
2019-01-13T01:58:32.500Z,0.00
2019-01-13T01:59:32.457Z,0.00
2019-01-13T02:00:32.438Z,0.00
2019-01-13T02:01:32.402Z,0.00
2019-01-13T02:02:32.381Z,0.00
2019-01-13T02:03:32.392Z,0.00
2019-01-13T02:04:32.375Z,0.00
2019-01-13T02:05:32.395Z,0.00
2019-01-13T02:06:32.556Z,0.00
2019-01-13T02:07:32.477Z,0.00
2019-01-13T02:08:32.502Z,0.00
2019-01-13T02:09:32.392Z,0.00
2019-01-13T02:10:32.446Z,0.00
2019-01-13T02:11:32.439Z,0.00
2019-01-13T02:12:32.451Z,0.00
2019-01-13T02:13:32.439Z,0.00
2019-01-13T02:14:32.510Z,0.00
2019-01-13T02:15:32.515Z,0.00
2019-01-13T02:16:32.444Z,0.00
2019-01-13T02:17:32.444Z,0.00
2019-01-13T02:18:32.458Z,0.00
2019-01-13T02:19:32.510Z,0.00
2019-01-13T02:20:32.514Z,0.00
2019-01-13T02:21:32.532Z,0.00
2019-01-13T02:22:32.454Z,0.00
2019-01-13T02:23:32.516Z,0.00
2019-01-13T02:24:32.462Z,0.00
2019-01-13T02:25:32.520Z,0.00
2019-01-13T02:26:32.524Z,0.00
2019-01-13T02:27:32.520Z,0.00
2019-01-13T02:28:32.458Z,0.00
2019-01-13T02:29:32.528Z,0.00
2019-01-13T02:30:32.453Z,0.00
2019-01-13T02:31:32.378Z,0.00
2019-01-13T02:32:32.451Z,0.00
2019-01-13T02:33:32.469Z,0.00
2019-01-13T02:34:32.457Z,0.00
2019-01-13T02:35:32.444Z,0.00
2019-01-13T02:36:32.383Z,0.00
2019-01-13T02:37:32.480Z,0.00
2019-01-13T02:38:32.390Z,0.00
2019-01-13T02:39:32.463Z,0.00
2019-01-13T02:40:32.446Z,0.00
2019-01-13T02:41:32.519Z,0.00
2019-01-13T02:42:32.444Z,0.00
2019-01-13T02:43:32.446Z,0.00
2019-01-13T02:44:32.528Z,0.00
2019-01-13T02:45:32.522Z,0.00
2019-01-13T02:46:32.456Z,0.00
2019-01-13T02:47:32.520Z,0.00
2019-01-13T02:48:32.524Z,0.00
2019-01-13T02:49:32.448Z,0.00
2019-01-13T02:50:32.459Z,0.00
2019-01-13T02:51:32.544Z,0.00
2019-01-13T02:52:32.534Z,0.00
2019-01-13T02:53:32.506Z,0.00
2019-01-13T02:54:32.473Z,0.00
2019-01-13T02:55:32.503Z,0.00
2019-01-13T02:56:32.545Z,0.00
2019-01-13T02:57:32.486Z,0.00
2019-01-13T02:58:32.470Z,0.00
2019-01-13T02:59:32.472Z,0.00
2019-01-13T03:00:32.542Z,0.00
2019-01-13T03:01:32.499Z,0.00
2019-01-13T03:02:32.446Z,0.00
2019-01-13T03:03:32.408Z,0.00
2019-01-13T03:04:32.483Z,0.00
2019-01-13T03:05:32.442Z,0.00
2019-01-13T03:06:32.406Z,0.00
2019-01-13T03:07:32.443Z,0.00
2019-01-13T03:08:32.471Z,0.00
2019-01-13T03:09:32.478Z,0.00
2019-01-13T03:10:32.506Z,0.00
2019-01-13T03:11:32.543Z,0.00
2019-01-13T03:12:32.477Z,0.00
2019-01-13T03:13:32.548Z,0.00
2019-01-13T03:14:32.453Z,0.00
2019-01-13T03:15:32.439Z,0.00
2019-01-13T03:16:32.479Z,0.00
2019-01-13T03:17:32.481Z,0.00
2019-01-13T03:18:32.447Z,0.00
2019-01-13T03:19:32.545Z,0.00
2019-01-13T03:20:32.542Z,0.00
2019-01-13T03:21:32.537Z,0.00
2019-01-13T03:22:32.418Z,0.00
2019-01-13T03:23:32.492Z,0.00
2019-01-13T03:24:32.495Z,0.00
2019-01-13T03:25:32.547Z,0.00
2019-01-13T03:26:32.518Z,0.00
2019-01-13T03:27:32.450Z,0.00
2019-01-13T03:28:32.427Z,0.00
2019-01-13T03:29:32.456Z,0.00
2019-01-13T03:30:32.520Z,0.00
2019-01-13T03:31:32.502Z,0.00
2019-01-13T03:32:32.578Z,0.00
2019-01-13T03:33:32.500Z,0.00
2019-01-13T03:34:32.559Z,0.00
2019-01-13T03:35:32.564Z,0.00
2019-01-13T03:36:32.565Z,0.00
2019-01-13T03:37:32.567Z,0.00
2019-01-13T03:38:32.588Z,0.00
2019-01-13T03:39:32.511Z,0.00
2019-01-13T03:40:32.509Z,0.00
2019-01-13T03:41:32.551Z,0.00
2019-01-13T03:42:32.466Z,0.00
2019-01-13T03:43:32.515Z,0.00
2019-01-13T03:44:32.536Z,0.00
2019-01-13T03:45:32.458Z,0.00
2019-01-13T03:46:32.461Z,0.00
2019-01-13T03:47:32.564Z,0.00
2019-01-13T03:48:32.445Z,0.00
2019-01-13T03:49:32.513Z,0.00
2019-01-13T03:50:32.531Z,0.00
2019-01-13T03:51:32.568Z,0.00
2019-01-13T03:52:32.568Z,0.00
2019-01-13T03:53:32.470Z,0.00
2019-01-13T03:54:32.568Z,0.00
2019-01-13T03:55:32.577Z,0.00
2019-01-13T03:56:32.502Z,0.00
2019-01-13T03:57:32.497Z,0.00
2019-01-13T03:58:32.572Z,0.00
2019-01-13T03:59:32.574Z,0.00
2019-01-13T04:00:32.573Z,0.00
2019-01-13T04:01:32.590Z,0.00
2019-01-13T04:02:32.534Z,0.00
2019-01-13T04:03:32.586Z,0.00
2019-01-13T04:04:32.519Z,0.00
2019-01-13T04:05:32.535Z,0.00
2019-01-13T04:06:32.588Z,0.00
2019-01-13T04:07:32.535Z,0.00
2019-01-13T04:08:32.523Z,0.00
2019-01-13T04:09:32.589Z,0.00
2019-01-13T04:10:32.617Z,0.00
2019-01-13T04:11:32.589Z,0.00
2019-01-13T04:12:32.619Z,0.00
2019-01-13T04:13:32.531Z,0.00
2019-01-13T04:14:32.595Z,0.00
2019-01-13T04:15:32.527Z,0.00
2019-01-13T04:16:32.531Z,0.00
2019-01-13T04:17:32.527Z,0.00
2019-01-13T04:18:32.528Z,0.00
2019-01-13T04:19:32.529Z,0.00
2019-01-13T04:20:32.594Z,0.00
2019-01-13T04:21:32.442Z,0.00
2019-01-13T04:22:32.409Z,0.00
2019-01-13T04:23:32.525Z,0.00
2019-01-13T04:24:32.478Z,0.00
2019-01-13T04:25:32.444Z,0.00
2019-01-13T04:26:32.480Z,0.00
2019-01-13T04:27:32.525Z,0.00
2019-01-13T04:28:32.482Z,0.00
2019-01-13T04:29:32.420Z,0.00
2019-01-13T04:30:32.547Z,0.00
2019-01-13T04:31:32.523Z,0.00
2019-01-13T04:32:32.566Z,0.00
2019-01-13T04:33:32.608Z,0.00
2019-01-13T04:34:32.530Z,0.00
2019-01-13T04:35:32.595Z,0.00
2019-01-13T04:36:32.602Z,0.00
2019-01-13T04:37:32.621Z,0.00
2019-01-13T04:38:32.609Z,0.00
2019-01-13T04:39:32.620Z,0.00
2019-01-13T04:40:32.602Z,0.00
2019-01-13T04:41:32.615Z,0.00
2019-01-13T04:42:32.613Z,0.00
2019-01-13T04:43:32.556Z,0.00
2019-01-13T04:44:32.623Z,0.00
2019-01-13T04:45:32.568Z,0.00
2019-01-13T04:46:32.548Z,0.00
2019-01-13T04:47:32.550Z,0.00
2019-01-13T04:48:32.551Z,0.00
2019-01-13T04:49:32.581Z,0.00
2019-01-13T04:50:32.623Z,0.00
2019-01-13T04:51:32.554Z,0.00
2019-01-13T04:52:32.561Z,0.00
2019-01-13T04:53:32.551Z,0.00
2019-01-13T04:54:32.556Z,0.00
2019-01-13T04:55:32.635Z,0.00
2019-01-13T04:56:32.624Z,0.00
2019-01-13T04:57:32.551Z,0.00
2019-01-13T04:58:32.560Z,0.00
2019-01-13T04:59:32.569Z,0.00
2019-01-13T05:00:32.660Z,0.00
2019-01-13T05:01:34.565Z,0.00
2019-01-13T05:02:32.620Z,0.00
2019-01-13T05:03:32.554Z,0.00
2019-01-13T05:04:32.623Z,0.00
2019-01-13T05:05:32.545Z,0.00
2019-01-13T05:06:32.625Z,0.00
2019-01-13T05:07:32.646Z,0.00
2019-01-13T05:08:32.665Z,0.00
2019-01-13T05:09:32.557Z,0.00
2019-01-13T05:10:32.621Z,0.00
2019-01-13T05:11:32.558Z,0.00
2019-01-13T05:12:32.566Z,0.00
2019-01-13T05:13:32.645Z,0.00
2019-01-13T05:14:32.640Z,0.00
2019-01-13T05:15:32.573Z,0.00
2019-01-13T05:16:32.565Z,0.00
2019-01-13T05:17:33.810Z,0.00
2019-01-13T05:18:32.645Z,0.00
2019-01-13T05:19:32.641Z,0.00
2019-01-13T05:20:32.578Z,0.00
2019-01-13T05:21:32.578Z,0.00
2019-01-13T05:22:32.564Z,0.00
2019-01-13T05:23:32.628Z,0.00
2019-01-13T05:24:32.535Z,0.00
2019-01-13T05:25:32.506Z,0.00
2019-01-13T05:26:32.508Z,0.00
2019-01-13T05:27:32.527Z,0.00
2019-01-13T05:28:32.560Z,0.00
2019-01-13T05:29:32.631Z,0.00
2019-01-13T05:30:32.624Z,0.00
2019-01-13T05:31:32.625Z,0.00
2019-01-13T05:32:32.638Z,0.00
2019-01-13T05:33:32.568Z,0.00
2019-01-13T05:34:32.572Z,0.00
2019-01-13T05:35:32.641Z,0.00
2019-01-13T05:36:32.565Z,0.00
2019-01-13T05:37:32.641Z,0.00
2019-01-13T05:38:32.650Z,0.00
2019-01-13T05:39:32.581Z,0.00
2019-01-13T05:40:32.579Z,0.00
2019-01-13T05:41:32.646Z,0.00
2019-01-13T05:42:32.585Z,0.00
2019-01-13T05:43:32.656Z,0.00
2019-01-13T05:44:32.662Z,0.00
2019-01-13T05:45:32.597Z,0.00
2019-01-13T05:46:32.594Z,0.00
2019-01-13T05:47:32.592Z,0.00
2019-01-13T05:48:32.653Z,0.00
2019-01-13T05:49:32.598Z,0.00
2019-01-13T05:50:32.670Z,0.00
2019-01-13T05:51:32.600Z,0.00
2019-01-13T05:52:32.593Z,0.00
2019-01-13T05:53:32.663Z,0.00
2019-01-13T05:54:32.600Z,0.00
2019-01-13T05:55:32.597Z,0.00
2019-01-13T05:56:32.598Z,0.00
2019-01-13T05:57:32.621Z,0.00
2019-01-13T05:58:32.667Z,0.00
2019-01-13T05:59:32.671Z,0.00
2019-01-13T06:00:32.671Z,0.00
2019-01-13T06:01:33.993Z,0.00
2019-01-13T06:02:32.536Z,0.00
2019-01-13T06:03:32.656Z,0.00
2019-01-13T06:04:32.655Z,0.00
2019-01-13T06:05:32.647Z,0.00
2019-01-13T06:06:32.546Z,0.00
2019-01-13T06:07:32.609Z,0.00
2019-01-13T06:08:32.575Z,0.00
2019-01-13T06:09:32.569Z,0.00
2019-01-13T06:10:32.623Z,0.00
2019-01-13T06:11:32.667Z,0.00
2019-01-13T06:12:32.630Z,0.00
2019-01-13T06:13:32.545Z,0.00
2019-01-13T06:14:32.635Z,0.00
2019-01-13T06:15:32.579Z,0.00
2019-01-13T06:16:32.660Z,0.00
2019-01-13T06:17:32.670Z,0.00
2019-01-13T06:18:32.641Z,0.00
2019-01-13T06:19:32.611Z,0.00
2019-01-13T06:20:32.655Z,0.00
2019-01-13T06:21:32.567Z,0.00
2019-01-13T06:22:32.675Z,0.00
2019-01-13T06:23:32.600Z,0.00
2019-01-13T06:24:32.677Z,0.00
2019-01-13T06:25:32.678Z,0.00
2019-01-13T06:26:32.608Z,0.00
2019-01-13T06:27:32.681Z,0.00
2019-01-13T06:28:32.603Z,0.00
2019-01-13T06:29:32.680Z,0.00
2019-01-13T06:30:32.614Z,0.00
2019-01-13T06:31:32.679Z,0.00
2019-01-13T06:32:32.680Z,0.00
2019-01-13T06:33:32.646Z,0.00
2019-01-13T06:34:32.673Z,0.00
2019-01-13T06:35:32.669Z,0.00
2019-01-13T06:36:32.653Z,0.00
2019-01-13T06:37:32.562Z,0.00
2019-01-13T06:38:32.562Z,0.00
2019-01-13T06:39:32.623Z,0.00
2019-01-13T06:40:32.645Z,0.00
2019-01-13T06:41:32.560Z,0.00
2019-01-13T06:42:32.699Z,0.00
2019-01-13T06:43:32.718Z,0.00
2019-01-13T06:44:32.646Z,0.00
2019-01-13T06:45:32.657Z,0.00
2019-01-13T06:46:32.708Z,0.00
2019-01-13T06:47:32.712Z,0.00
2019-01-13T06:48:32.709Z,1.00
2019-01-13T06:49:32.715Z,1.00
2019-01-13T06:50:32.723Z,1.00
2019-01-13T06:51:32.691Z,1.00
2019-01-13T06:52:32.655Z,1.00
2019-01-13T06:53:32.704Z,1.00
2019-01-13T06:54:32.637Z,1.00
2019-01-13T06:55:32.648Z,2.00
2019-01-13T06:56:32.715Z,2.00
2019-01-13T06:57:32.636Z,2.00
2019-01-13T06:58:32.639Z,3.00
2019-01-13T06:59:32.640Z,3.00
2019-01-13T07:00:32.708Z,3.00
2019-01-13T07:01:32.654Z,4.00
2019-01-13T07:02:32.701Z,4.00
2019-01-13T07:03:32.630Z,5.00
2019-01-13T07:04:32.707Z,5.00
2019-01-13T07:05:32.639Z,6.00
2019-01-13T07:06:32.706Z,7.00
2019-01-13T07:07:32.635Z,7.00
2019-01-13T07:08:32.708Z,9.00
2019-01-13T07:09:32.641Z,10.00
2019-01-13T07:10:32.706Z,10.00
2019-01-13T07:11:32.641Z,12.00
2019-01-13T07:12:32.654Z,13.00
2019-01-13T07:13:32.586Z,14.00
2019-01-13T07:14:32.594Z,17.00
2019-01-13T07:15:32.673Z,18.00
2019-01-13T07:16:32.662Z,19.00
2019-01-13T07:17:32.673Z,21.00
2019-01-13T07:18:32.706Z,24.00
2019-01-13T07:19:32.682Z,25.00
2019-01-13T07:20:32.703Z,26.00
2019-01-13T07:21:32.592Z,26.00
2019-01-13T07:22:32.648Z,27.00
2019-01-13T07:23:32.716Z,29.00
2019-01-13T07:24:32.718Z,29.00
2019-01-13T07:25:32.719Z,29.00
2019-01-13T07:26:32.651Z,32.00
2019-01-13T07:27:32.654Z,43.00
2019-01-13T07:28:32.724Z,53.00
2019-01-13T07:29:32.647Z,59.00
2019-01-13T07:30:32.720Z,62.00
2019-01-13T07:31:32.649Z,66.00
2019-01-13T07:32:32.668Z,73.00
2019-01-13T07:33:32.620Z,82.00
2019-01-13T07:34:32.625Z,84.00
2019-01-13T07:35:32.601Z,87.00
2019-01-13T07:36:32.596Z,97.00
2019-01-13T07:37:32.726Z,106.00
2019-01-13T07:38:32.696Z,120.00
2019-01-13T07:39:32.743Z,136.00
2019-01-13T07:40:32.703Z,153.00
2019-01-13T07:41:32.693Z,165.00
2019-01-13T07:42:32.653Z,182.00
2019-01-13T07:43:32.735Z,207.00
2019-01-13T07:44:32.731Z,221.00
2019-01-13T07:45:32.763Z,231.00
2019-01-13T07:46:32.727Z,248.00
2019-01-13T07:47:32.663Z,275.00
2019-01-13T07:48:32.732Z,302.00
2019-01-13T07:49:32.746Z,317.00
2019-01-13T07:50:32.734Z,326.00
2019-01-13T07:51:32.742Z,328.00
2019-01-13T07:52:32.713Z,342.00
2019-01-13T07:53:32.677Z,353.00
2019-01-13T07:54:32.757Z,366.00
2019-01-13T07:55:32.762Z,383.00
2019-01-13T07:56:32.749Z,373.00
2019-01-13T07:57:32.683Z,328.00
2019-01-13T07:58:32.685Z,369.00
2019-01-13T07:59:32.755Z,412.00
2019-01-13T08:00:32.683Z,433.00
2019-01-13T08:01:32.681Z,490.00
2019-01-13T08:02:32.753Z,541.00
2019-01-13T08:03:32.693Z,549.00
2019-01-13T08:04:32.761Z,502.00
2019-01-13T08:05:32.689Z,515.00
2019-01-13T08:06:32.684Z,532.00
2019-01-13T08:07:32.692Z,510.00
2019-01-13T08:08:32.762Z,526.00
2019-01-13T08:09:32.699Z,558.00
2019-01-13T08:10:32.694Z,560.00
2019-01-13T08:11:32.692Z,556.00
2019-01-13T08:12:32.661Z,544.00
2019-01-13T08:13:32.650Z,526.00
2019-01-13T08:14:32.628Z,502.00
2019-01-13T08:15:32.677Z,487.00
2019-01-13T08:16:32.709Z,497.00
2019-01-13T08:17:32.679Z,511.00
2019-01-13T08:18:32.590Z,521.00
2019-01-13T08:19:32.698Z,524.00
2019-01-13T08:20:32.634Z,509.00
2019-01-13T08:21:32.718Z,484.00
2019-01-13T08:22:32.684Z,452.00
2019-01-13T08:23:32.682Z,434.00
2019-01-13T08:24:32.695Z,452.00
2019-01-13T08:25:32.762Z,505.00
2019-01-13T08:26:32.761Z,563.00
2019-01-13T08:27:32.760Z,607.00
2019-01-13T08:28:32.759Z,650.00
2019-01-13T08:29:32.851Z,692.00
2019-01-13T08:30:32.774Z,726.00
2019-01-13T08:31:32.767Z,750.00
2019-01-13T08:32:32.711Z,757.00
2019-01-13T08:33:32.777Z,759.00
2019-01-13T08:34:32.783Z,783.00
2019-01-13T08:35:32.710Z,781.00
2019-01-13T08:36:32.715Z,784.00
2019-01-13T08:37:32.781Z,862.00
2019-01-13T08:38:32.717Z,890.00
2019-01-13T08:39:32.708Z,918.00
2019-01-13T08:40:32.776Z,934.00
2019-01-13T08:41:32.710Z,918.00
2019-01-13T08:42:32.775Z,835.00
2019-01-13T08:43:32.713Z,782.00
2019-01-13T08:44:32.715Z,891.00
2019-01-13T08:45:32.779Z,945.00
2019-01-13T08:46:32.709Z,918.00
2019-01-13T08:47:32.798Z,917.00
2019-01-13T08:48:32.726Z,889.00
2019-01-13T08:49:32.783Z,890.00
2019-01-13T08:50:32.718Z,917.00
2019-01-13T08:51:32.717Z,999.00
2019-01-13T08:52:32.781Z,999.00
2019-01-13T08:53:32.815Z,999.00
2019-01-13T08:54:32.777Z,999.00
2019-01-13T08:55:32.691Z,999.00
2019-01-13T08:56:32.716Z,999.00
2019-01-13T08:57:32.778Z,999.00
2019-01-13T08:58:32.735Z,999.00
2019-01-13T08:59:32.770Z,999.00
2019-01-13T09:00:32.697Z,999.00
2019-01-13T09:01:32.714Z,999.00
2019-01-13T09:02:32.795Z,999.00
2019-01-13T09:03:32.693Z,999.00
2019-01-13T09:04:32.760Z,999.00
2019-01-13T09:05:32.621Z,999.00
2019-01-13T09:06:32.769Z,999.00
2019-01-13T09:07:32.718Z,999.00
2019-01-13T09:08:32.695Z,999.00
2019-01-13T09:09:32.745Z,999.00
2019-01-13T09:10:32.749Z,999.00
2019-01-13T09:11:32.682Z,999.00
2019-01-13T09:12:32.806Z,999.00
2019-01-13T09:13:32.729Z,998.00
2019-01-13T09:14:32.802Z,971.00
2019-01-13T09:15:32.737Z,889.00
2019-01-13T09:16:32.805Z,999.00
2019-01-13T09:17:32.739Z,999.00
2019-01-13T09:18:32.808Z,999.00
2019-01-13T09:19:32.800Z,999.00
2019-01-13T09:20:32.750Z,999.00
2019-01-13T09:21:32.738Z,999.00
2019-01-13T09:22:32.705Z,999.00
2019-01-13T09:23:32.888Z,999.00
2019-01-13T09:24:32.797Z,999.00
2019-01-13T09:25:32.792Z,999.00
2019-01-13T09:26:32.802Z,999.00
2019-01-13T09:27:32.709Z,999.00
2019-01-13T09:28:32.803Z,999.00
2019-01-13T09:29:32.686Z,999.00
2019-01-13T09:30:32.802Z,999.00
2019-01-13T09:31:32.739Z,999.00
2019-01-13T09:32:39.255Z,999.00
2019-01-13T09:33:32.752Z,999.00
2019-01-13T09:34:32.812Z,999.00
2019-01-13T09:35:32.749Z,999.00
2019-01-13T09:36:32.755Z,999.00
2019-01-13T09:37:32.779Z,999.00
2019-01-13T09:38:32.753Z,999.00
2019-01-13T09:39:32.753Z,999.00
2019-01-13T09:40:32.818Z,999.00
2019-01-13T09:41:32.817Z,999.00
2019-01-13T09:42:32.751Z,999.00
2019-01-13T09:43:32.750Z,999.00
2019-01-13T09:44:32.820Z,999.00
2019-01-13T09:45:32.749Z,999.00
2019-01-13T09:46:32.780Z,999.00
2019-01-13T09:47:32.765Z,999.00
2019-01-13T09:48:32.833Z,999.00
2019-01-13T09:49:32.825Z,999.00
2019-01-13T09:50:32.757Z,999.00
2019-01-13T09:51:32.820Z,999.00
2019-01-13T09:52:32.757Z,999.00
2019-01-13T09:53:32.835Z,999.00
2019-01-13T09:54:32.826Z,999.00
2019-01-13T09:55:32.835Z,999.00
2019-01-13T09:56:32.880Z,999.00
2019-01-13T09:57:32.836Z,999.00
2019-01-13T09:58:32.763Z,999.00
2019-01-13T09:59:32.849Z,999.00
2019-01-13T10:00:32.834Z,999.00
2019-01-13T10:01:32.761Z,999.00
2019-01-13T10:02:32.766Z,999.00
2019-01-13T10:03:32.792Z,999.00
2019-01-13T10:04:32.847Z,999.00
2019-01-13T10:05:32.705Z,999.00
2019-01-13T10:06:32.706Z,999.00
2019-01-13T10:07:32.733Z,999.00
2019-01-13T10:08:32.705Z,999.00
2019-01-13T10:09:32.833Z,999.00
2019-01-13T10:10:32.791Z,999.00
2019-01-13T10:11:32.715Z,999.00
2019-01-13T10:12:32.706Z,999.00
2019-01-13T10:13:32.707Z,999.00
2019-01-13T10:14:32.836Z,999.00
2019-01-13T10:15:32.711Z,999.00
2019-01-13T10:16:32.791Z,999.00
2019-01-13T10:17:32.776Z,999.00
2019-01-13T10:18:32.709Z,999.00
2019-01-13T10:19:32.744Z,999.00
2019-01-13T10:20:32.837Z,999.00
2019-01-13T10:21:32.823Z,999.00
2019-01-13T10:22:32.750Z,999.00
2019-01-13T10:23:32.810Z,999.00
2019-01-13T10:24:32.804Z,999.00
2019-01-13T10:25:32.721Z,999.00
2019-01-13T10:26:32.717Z,999.00
2019-01-13T10:27:32.829Z,999.00
2019-01-13T10:28:32.721Z,999.00
2019-01-13T10:29:32.720Z,999.00
2019-01-13T10:30:32.847Z,999.00
2019-01-13T10:31:32.832Z,999.00
2019-01-13T10:32:32.740Z,999.00
2019-01-13T10:33:32.789Z,999.00
2019-01-13T10:34:32.786Z,999.00
2019-01-13T10:35:32.846Z,999.00
2019-01-13T10:36:32.850Z,999.00
2019-01-13T10:37:32.761Z,999.00
2019-01-13T10:38:32.761Z,999.00
2019-01-13T10:39:32.852Z,999.00
2019-01-13T10:40:32.763Z,999.00
2019-01-13T10:41:32.850Z,999.00
2019-01-13T10:42:32.799Z,999.00
2019-01-13T10:43:32.861Z,999.00
2019-01-13T10:44:32.796Z,999.00
2019-01-13T10:45:32.870Z,999.00
2019-01-13T10:46:32.791Z,999.00
2019-01-13T10:47:32.830Z,999.00
2019-01-13T10:48:32.870Z,999.00
2019-01-13T10:49:32.803Z,999.00
2019-01-13T10:50:32.875Z,999.00
2019-01-13T10:51:32.797Z,999.00
2019-01-13T10:52:32.865Z,999.00
2019-01-13T10:53:32.802Z,999.00
2019-01-13T10:54:32.801Z,999.00
2019-01-13T10:55:32.869Z,999.00
2019-01-13T10:56:32.811Z,999.00
2019-01-13T10:57:32.874Z,999.00
2019-01-13T10:58:32.807Z,999.00
2019-01-13T10:59:32.871Z,999.00
2019-01-13T11:00:32.820Z,999.00
2019-01-13T11:01:32.879Z,999.00
2019-01-13T11:02:32.872Z,999.00
2019-01-13T11:03:32.806Z,999.00
2019-01-13T11:04:32.817Z,999.00
2019-01-13T11:05:32.876Z,999.00
2019-01-13T11:06:32.811Z,999.00
2019-01-13T11:07:32.811Z,999.00
2019-01-13T11:08:32.877Z,999.00
2019-01-13T11:09:32.852Z,999.00
2019-01-13T11:10:32.897Z,999.00
2019-01-13T11:11:32.818Z,999.00
2019-01-13T11:12:32.783Z,999.00
2019-01-13T11:13:32.761Z,999.00
2019-01-13T11:14:32.788Z,999.00
2019-01-13T11:15:32.880Z,999.00
2019-01-13T11:16:32.801Z,999.00
2019-01-13T11:17:32.878Z,999.00
2019-01-13T11:18:32.876Z,999.00
2019-01-13T11:19:32.871Z,999.00
2019-01-13T11:20:32.809Z,999.00
2019-01-13T11:21:32.842Z,999.00
2019-01-13T11:22:32.757Z,999.00
2019-01-13T11:23:32.830Z,999.00
2019-01-13T11:24:32.843Z,999.00
2019-01-13T11:25:32.762Z,999.00
2019-01-13T11:26:32.766Z,999.00
2019-01-13T11:27:32.879Z,999.00
2019-01-13T11:28:32.853Z,999.00
2019-01-13T11:29:32.914Z,999.00
2019-01-13T11:30:32.825Z,999.00
2019-01-13T11:31:32.785Z,999.00
2019-01-13T11:32:32.823Z,999.00
2019-01-13T11:33:32.797Z,999.00
2019-01-13T11:34:32.786Z,999.00
2019-01-13T11:35:32.816Z,999.00
2019-01-13T11:36:32.804Z,999.00
2019-01-13T11:37:32.780Z,999.00
2019-01-13T11:38:32.875Z,999.00
2019-01-13T11:39:32.903Z,999.00
2019-01-13T11:40:32.831Z,999.00
2019-01-13T11:41:32.855Z,999.00
2019-01-13T11:42:32.834Z,999.00
2019-01-13T11:43:32.904Z,999.00
2019-01-13T11:44:32.840Z,999.00
2019-01-13T11:45:32.835Z,999.00
2019-01-13T11:46:32.908Z,999.00
2019-01-13T11:47:32.838Z,999.00
2019-01-13T11:48:32.919Z,999.00
2019-01-13T11:49:32.918Z,999.00
2019-01-13T11:50:32.845Z,999.00
2019-01-13T11:51:32.908Z,999.00
2019-01-13T11:52:32.845Z,999.00
2019-01-13T11:53:32.920Z,999.00
2019-01-13T11:54:32.844Z,999.00
2019-01-13T11:55:32.924Z,999.00
2019-01-13T11:56:32.849Z,999.00
2019-01-13T11:57:32.876Z,999.00
2019-01-13T11:58:32.850Z,999.00
2019-01-13T11:59:32.853Z,999.00
2019-01-13T12:00:32.851Z,999.00
2019-01-13T12:01:32.848Z,999.00
2019-01-13T12:02:33.049Z,999.00
2019-01-13T12:03:32.920Z,999.00
2019-01-13T12:04:32.849Z,999.00
2019-01-13T12:05:32.921Z,999.00
2019-01-13T12:06:32.859Z,999.00
2019-01-13T12:07:32.923Z,999.00
2019-01-13T12:08:32.855Z,999.00
2019-01-13T12:09:32.926Z,999.00
2019-01-13T12:10:32.861Z,999.00
2019-01-13T12:11:32.930Z,999.00
2019-01-13T12:12:32.930Z,999.00
2019-01-13T12:13:32.812Z,999.00
2019-01-13T12:14:32.864Z,999.00
2019-01-13T12:15:32.938Z,999.00
2019-01-13T12:16:32.860Z,999.00
2019-01-13T12:17:32.938Z,999.00
2019-01-13T12:18:32.968Z,999.00
2019-01-13T12:19:32.859Z,999.00
2019-01-13T12:20:32.872Z,999.00
2019-01-13T12:21:32.928Z,999.00
2019-01-13T12:22:32.861Z,999.00
2019-01-13T12:23:32.907Z,999.00
2019-01-13T12:24:32.828Z,999.00
2019-01-13T12:25:32.893Z,999.00
2019-01-13T12:26:32.834Z,999.00
2019-01-13T12:27:32.830Z,999.00
2019-01-13T12:28:32.926Z,999.00
2019-01-13T12:29:32.864Z,999.00
2019-01-13T12:30:32.869Z,999.00
2019-01-13T12:31:32.924Z,999.00
2019-01-13T12:32:32.902Z,999.00
2019-01-13T12:33:32.882Z,999.00
2019-01-13T12:34:33.001Z,999.00
2019-01-13T12:35:32.938Z,999.00
2019-01-13T12:36:32.943Z,999.00
2019-01-13T12:37:32.880Z,999.00
2019-01-13T12:38:32.939Z,999.00
2019-01-13T12:39:32.941Z,999.00
2019-01-13T12:40:32.947Z,999.00
2019-01-13T12:41:32.880Z,999.00
2019-01-13T12:42:32.950Z,999.00
2019-01-13T12:43:32.878Z,999.00
2019-01-13T12:44:32.949Z,999.00
2019-01-13T12:45:32.893Z,999.00
2019-01-13T12:46:32.963Z,999.00
2019-01-13T12:47:32.960Z,999.00
2019-01-13T12:48:32.951Z,999.00
2019-01-13T12:49:32.887Z,999.00
2019-01-13T12:50:32.889Z,999.00
2019-01-13T12:51:32.893Z,999.00
2019-01-13T12:52:33.752Z,999.00
2019-01-13T12:53:32.882Z,999.00
2019-01-13T12:54:32.955Z,999.00
2019-01-13T12:55:32.896Z,999.00
2019-01-13T12:56:32.896Z,999.00